sensor_id;sensor_type;location;lat;lon;timestamp;pressure;altitude;pressure_sealevel;temperature;humidity
39449;BME280;25151;45.566;9.382;2023-08-01T00:02:06;99038.88;;;27.74;57.01
39449;BME280;25151;45.566;9.382;2023-08-01T00:04:32;99029.31;;;27.71;57.31
39449;BME280;25151;45.566;9.382;2023-08-01T00:07:04;99023.94;;;27.67;57.31
39449;BME280;25151;45.566;9.382;2023-08-01T00:09:35;99029.09;;;27.69;56.79
39449;BME280;25151;45.566;9.382;2023-08-01T00:12:02;99020.31;;;27.67;57.29
39449;BME280;25151;45.566;9.382;2023-08-01T00:14:31;99012.59;;;27.67;57.00
39449;BME280;25151;45.566;9.382;2023-08-01T00:17:00;99010.28;;;27.66;56.88
39449;BME280;25151;45.566;9.382;2023-08-01T00:19:30;99020.31;;;27.67;57.36
39449;BME280;25151;45.566;9.382;2023-08-01T00:22:01;99013.13;;;27.66;57.37
39449;BME280;25151;45.566;9.382;2023-08-01T00:24:28;99010.28;;;27.66;57.28
39449;BME280;25151;45.566;9.382;2023-08-01T00:26:55;99008.22;;;27.66;57.29
39449;BME280;25151;45.566;9.382;2023-08-01T00:29:22;99001.03;;;27.65;57.27
39449;BME280;25151;45.566;9.382;2023-08-01T00:31:48;98996.13;;;27.66;57.28
39449;BME280;25151;45.566;9.382;2023-08-01T00:34:20;98993.31;;;27.66;56.80
39449;BME280;25151;45.566;9.382;2023-08-01T00:36:47;98991.50;;;27.63;57.38
39449;BME280;25151;45.566;9.382;2023-08-01T00:39:15;98993.06;;;27.64;57.13
39449;BME280;25151;45.566;9.382;2023-08-01T00:41:41;98990.22;;;27.64;56.98
39449;BME280;25151;45.566;9.382;2023-08-01T00:44:10;98994.59;;;27.65;57.20
39449;BME280;25151;45.566;9.382;2023-08-01T00:46:39;98993.06;;;27.64;57.29
39449;BME280;25151;45.566;9.382;2023-08-01T00:49:06;98995.09;;;27.63;57.20
39449;BME280;25151;45.566;9.382;2023-08-01T00:51:36;98999.50;;;27.64;56.83
39449;BME280;25151;45.566;9.382;2023-08-01T00:54:05;98998.97;;;27.66;57.32
39449;BME280;25151;45.566;9.382;2023-08-01T00:56:32;99000.75;;;27.69;57.32
39449;BME280;25151;45.566;9.382;2023-08-01T00:58:59;98980.94;;;27.69;56.94
39449;BME280;25151;45.566;9.382;2023-08-01T01:01:26;98976.56;;;27.68;57.09
39449;BME280;25151;45.566;9.382;2023-08-01T01:03:56;98957.50;;;27.63;56.95
39449;BME280;25151;45.566;9.382;2023-08-01T01:08:58;98973.75;;;27.68;57.18
39449;BME280;25151;45.566;9.382;2023-08-01T01:11:24;98944.66;;;27.62;56.79
39449;BME280;25151;45.566;9.382;2023-08-01T01:13:52;98947.47;;;27.62;56.81
39449;BME280;25151;45.566;9.382;2023-08-01T01:16:20;98953.91;;;27.68;57.19
39449;BME280;25151;45.566;9.382;2023-08-01T01:18:47;98943.63;;;27.59;57.21
39449;BME280;25151;45.566;9.382;2023-08-01T01:21:13;98956.47;;;27.66;57.31
39449;BME280;25151;45.566;9.382;2023-08-01T01:23:46;98955.19;;;27.67;57.24
39449;BME280;25151;45.566;9.382;2023-08-01T01:26:16;98946.69;;;27.67;56.96
39449;BME280;25151;45.566;9.382;2023-08-01T01:28:52;98930.22;;;27.60;57.39
39449;BME280;25151;45.566;9.382;2023-08-01T01:31:22;98929.72;;;27.61;56.79
39449;BME280;25151;45.566;9.382;2023-08-01T01:33:53;98918.41;;;27.61;57.41
39449;BME280;25151;45.566;9.382;2023-08-01T01:36:20;98922.50;;;27.66;57.20
39449;BME280;25151;45.566;9.382;2023-08-01T01:38:50;98922.50;;;27.66;57.31
39449;BME280;25151;45.566;9.382;2023-08-01T01:41:19;98917.63;;;27.61;56.95
39449;BME280;25151;45.566;9.382;2023-08-01T01:43:51;98922.53;;;27.60;56.87
39449;BME280;25151;45.566;9.382;2023-08-01T01:46:21;98925.88;;;27.59;56.79
39449;BME280;25151;45.566;9.382;2023-08-01T01:48:51;98920.47;;;27.61;57.09
39449;BME280;25151;45.566;9.382;2023-08-01T01:51:21;98904.75;;;27.60;57.33
39449;BME280;25151;45.566;9.382;2023-08-01T01:53:48;98899.88;;;27.60;57.11
39449;BME280;25151;45.566;9.382;2023-08-01T01:56:20;98919.66;;;27.66;57.37
39449;BME280;25151;45.566;9.382;2023-08-01T01:58:52;98923.78;;;27.65;57.00
39449;BME280;25151;45.566;9.382;2023-08-01T02:01:21;98928.16;;;27.66;56.74
39449;BME280;25151;45.566;9.382;2023-08-01T02:03:48;98938.19;;;27.67;56.77
39449;BME280;25151;45.566;9.382;2023-08-01T02:06:19;98957.25;;;27.66;57.27
39449;BME280;25151;45.566;9.382;2023-08-01T02:08:46;98960.09;;;27.61;57.24
39449;BME280;25151;45.566;9.382;2023-08-01T02:11:12;98969.59;;;27.69;56.85
39449;BME280;25151;45.566;9.382;2023-08-01T02:13:39;98956.75;;;27.62;57.38
39449;BME280;25151;45.566;9.382;2023-08-01T02:16:06;98954.69;;;27.68;56.83
39449;BME280;25151;45.566;9.382;2023-08-01T02:18:32;98940.53;;;27.63;57.00
39449;BME280;25151;45.566;9.382;2023-08-01T02:21:02;98942.81;;;27.70;56.92
39449;BME280;25151;45.566;9.382;2023-08-01T02:23:31;98930.75;;;27.64;56.92
39449;BME280;25151;45.566;9.382;2023-08-01T02:26:07;98940.78;;;27.65;57.08
39449;BME280;25151;45.566;9.382;2023-08-01T02:28:34;98930.75;;;27.64;57.12
39449;BME280;25151;45.566;9.382;2023-08-01T02:31:01;98947.19;;;27.71;57.36
39449;BME280;25151;45.566;9.382;2023-08-01T02:33:30;98934.34;;;27.64;57.48
39449;BME280;25151;45.566;9.382;2023-08-01T02:36:02;98936.13;;;27.67;57.27
39449;BME280;25151;45.566;9.382;2023-08-01T02:38:31;98940.00;;;27.70;57.12
39449;BME280;25151;45.566;9.382;2023-08-01T02:41:01;98927.41;;;27.65;57.29
39449;BME280;25151;45.566;9.382;2023-08-01T02:43:30;98903.97;;;27.65;57.06
39449;BME280;25151;45.566;9.382;2023-08-01T02:45:57;98901.88;;;27.71;57.63
39449;BME280;25151;45.566;9.382;2023-08-01T02:48:26;98895.47;;;27.65;57.55
39449;BME280;25151;45.566;9.382;2023-08-01T02:50:55;98888.28;;;27.64;57.11
39449;BME280;25151;45.566;9.382;2023-08-01T02:53:21;98890.31;;;27.63;57.54
39449;BME280;25151;45.566;9.382;2023-08-01T02:55:48;98911.16;;;27.66;57.31
39449;BME280;25151;45.566;9.382;2023-08-01T02:58:15;98925.09;;;27.64;57.05
39449;BME280;25151;45.566;9.382;2023-08-01T03:00:44;98929.69;;;27.67;57.11
39449;BME280;25151;45.566;9.382;2023-08-01T03:03:18;98922.50;;;27.66;57.35
39449;BME280;25151;45.566;9.382;2023-08-01T03:05:50;98937.41;;;27.72;57.67
39449;BME280;25151;45.566;9.382;2023-08-01T03:08:22;98924.03;;;27.67;57.29
39449;BME280;25151;45.566;9.382;2023-08-01T03:10:49;98930.19;;;27.71;57.54
39449;BME280;25151;45.566;9.382;2023-08-01T03:13:21;98940.25;;;27.72;57.08
39449;BME280;25151;45.566;9.382;2023-08-01T03:15:54;98916.06;;;27.65;57.55
39449;BME280;25151;45.566;9.382;2023-08-01T03:18:23;98909.63;;;27.65;57.13
39449;BME280;25151;45.566;9.382;2023-08-01T03:20:52;98901.38;;;27.67;57.64
39449;BME280;25151;45.566;9.382;2023-08-01T03:23:21;98904.97;;;27.73;57.22
39449;BME280;25151;45.566;9.382;2023-08-01T03:25:50;98904.97;;;27.67;57.18
39449;BME280;25151;45.566;9.382;2023-08-01T03:28:19;98902.13;;;27.67;57.49
39449;BME280;25151;45.566;9.382;2023-08-01T03:30:46;98904.22;;;27.67;57.67
39449;BME280;25151;45.566;9.382;2023-08-01T03:33:18;98898.81;;;27.69;57.35
39449;BME280;25151;45.566;9.382;2023-08-01T03:35:45;98902.13;;;27.67;57.42
39449;BME280;25151;45.566;9.382;2023-08-01T03:38:14;98903.69;;;27.68;57.43
39449;BME280;25151;45.566;9.382;2023-08-01T03:40:43;98910.13;;;27.69;57.33
39449;BME280;25151;45.566;9.382;2023-08-01T03:43:14;98897.28;;;27.68;57.04
39449;BME280;25151;45.566;9.382;2023-08-01T03:45:41;98900.88;;;27.74;57.28
39449;BME280;25151;45.566;9.382;2023-08-01T03:48:08;98897.50;;;27.70;57.51
39449;BME280;25151;45.566;9.382;2023-08-01T03:50:34;98896.72;;;27.75;57.06
39449;BME280;25151;45.566;9.382;2023-08-01T03:53:04;98873.06;;;27.67;57.04
39449;BME280;25151;45.566;9.382;2023-08-01T03:55:30;98884.63;;;27.75;57.19
39449;BME280;25151;45.566;9.382;2023-08-01T03:58:02;98879.75;;;27.75;57.64
39449;BME280;25151;45.566;9.382;2023-08-01T04:00:34;98870.72;;;27.71;57.30
39449;BME280;25151;45.566;9.382;2023-08-01T04:03:03;98875.09;;;27.72;57.32
39449;BME280;25151;45.566;9.382;2023-08-01T04:05:29;98890.53;;;27.71;57.41
39449;BME280;25151;45.566;9.382;2023-08-01T04:07:56;98884.88;;;27.71;57.04
39449;BME280;25151;45.566;9.382;2023-08-01T04:10:26;98901.38;;;27.78;57.06
39449;BME280;25151;45.566;9.382;2023-08-01T04:12:55;98888.50;;;27.77;57.26
39449;BME280;25151;45.566;9.382;2023-08-01T04:15:22;98880.78;;;27.72;57.14
39449;BME280;25151;45.566;9.382;2023-08-01T04:17:51;98878.22;;;27.68;57.28
39449;BME280;25151;45.566;9.382;2023-08-01T04:20:21;98880.50;;;27.70;57.19
39449;BME280;25151;45.566;9.382;2023-08-01T04:22:51;98868.94;;;27.68;56.95
39449;BME280;25151;45.566;9.382;2023-08-01T04:25:23;98873.59;;;27.60;56.84
39449;BME280;25151;45.566;9.382;2023-08-01T04:27:53;98869.88;;;27.29;56.64
39449;BME280;25151;45.566;9.382;2023-08-01T04:30:22;98873.47;;;26.96;56.52
39449;BME280;25151;45.566;9.382;2023-08-01T04:32:53;98861.91;;;26.88;55.96
39449;BME280;25151;45.566;9.382;2023-08-01T04:35:20;98857.59;;;26.70;56.29
39449;BME280;25151;45.566;9.382;2023-08-01T04:37:51;98857.84;;;26.67;55.84
39449;BME280;25151;45.566;9.382;2023-08-01T04:40:20;98872.75;;;26.73;56.02
39449;BME280;25151;45.566;9.382;2023-08-01T04:42:47;98851.41;;;26.61;56.09
39449;BME280;25151;45.566;9.382;2023-08-01T04:45:16;98862.97;;;26.63;56.25
39449;BME280;25151;45.566;9.382;2023-08-01T04:47:45;98855.53;;;26.65;55.86
39449;BME280;25151;45.566;9.382;2023-08-01T04:50:15;98839.09;;;26.58;56.08
39449;BME280;25151;45.566;9.382;2023-08-01T04:52:47;98840.38;;;26.63;55.79
39449;BME280;25151;45.566;9.382;2023-08-01T04:55:14;98852.97;;;26.73;55.80
39449;BME280;25151;45.566;9.382;2023-08-01T04:57:43;98838.81;;;26.73;56.14
39449;BME280;25151;45.566;9.382;2023-08-01T05:00:14;98845.50;;;26.64;56.18
39449;BME280;25151;45.566;9.382;2023-08-01T05:02:46;98832.16;;;26.54;56.68
39449;BME280;25151;45.566;9.382;2023-08-01T05:05:19;98843.97;;;26.58;57.13
39449;BME280;25151;45.566;9.382;2023-08-01T05:07:48;98827.75;;;26.53;56.98
39449;BME280;25151;45.566;9.382;2023-08-01T05:10:14;98834.97;;;26.48;57.57
39449;BME280;25151;45.566;9.382;2023-08-01T05:12:41;98836.53;;;26.49;57.79
39449;BME280;25151;45.566;9.382;2023-08-01T05:15:10;98838.84;;;26.51;57.92
39449;BME280;25151;45.566;9.382;2023-08-01T05:17:39;98828.53;;;26.47;57.53
39449;BME280;25151;45.566;9.382;2023-08-01T05:20:06;98830.59;;;26.64;57.34
39449;BME280;25151;45.566;9.382;2023-08-01T05:22:34;98822.91;;;26.59;57.55
39449;BME280;25151;45.566;9.382;2023-08-01T05:25:01;98806.47;;;26.57;57.45
39449;BME280;25151;45.566;9.382;2023-08-01T05:27:30;98807.47;;;26.48;58.00
39449;BME280;25151;45.566;9.382;2023-08-01T05:30:02;98814.13;;;26.57;57.94
39449;BME280;25151;45.566;9.382;2023-08-01T05:32:29;98818.78;;;26.60;57.93
39449;BME280;25151;45.566;9.382;2023-08-01T05:34:55;98835.72;;;26.60;58.10
39449;BME280;25151;45.566;9.382;2023-08-01T05:37:22;98834.19;;;26.59;58.11
39449;BME280;25151;45.566;9.382;2023-08-01T05:39:51;98827.50;;;26.73;57.94
39449;BME280;25151;45.566;9.382;2023-08-01T05:42:20;98821.34;;;26.58;58.39
39449;BME280;25151;45.566;9.382;2023-08-01T05:44:47;98830.84;;;26.60;58.41
39449;BME280;25151;45.566;9.382;2023-08-01T05:47:17;98823.69;;;26.54;57.95
39449;BME280;25151;45.566;9.382;2023-08-01T05:49:50;98820.31;;;26.61;58.09
39449;BME280;25151;45.566;9.382;2023-08-01T05:52:16;98820.84;;;26.54;58.16
39449;BME280;25151;45.566;9.382;2023-08-01T05:54:45;98826.75;;;26.61;58.17
39449;BME280;25151;45.566;9.382;2023-08-01T05:57:17;98831.09;;;26.57;58.61
39449;BME280;25151;45.566;9.382;2023-08-01T05:59:49;98812.59;;;26.67;58.40
39449;BME280;25151;45.566;9.382;2023-08-01T06:02:23;98821.31;;;26.80;58.03
39449;BME280;25151;45.566;9.382;2023-08-01T06:04:50;98828.78;;;26.89;57.68
39449;BME280;25151;45.566;9.382;2023-08-01T06:07:24;98834.41;;;26.94;57.95
39449;BME280;25151;45.566;9.382;2023-08-01T06:09:51;98830.56;;;26.97;57.45
39449;BME280;25151;45.566;9.382;2023-08-01T06:12:20;98835.91;;;27.07;57.39
39449;BME280;25151;45.566;9.382;2023-08-01T06:14:49;98831.28;;;27.04;57.68
39449;BME280;25151;45.566;9.382;2023-08-01T06:17:18;98835.19;;;27.01;57.50
39449;BME280;25151;45.566;9.382;2023-08-01T06:19:49;98828.47;;;26.92;56.60
39449;BME280;25151;45.566;9.382;2023-08-01T06:22:19;98836.00;;;26.73;56.28
39449;BME280;25151;45.566;9.382;2023-08-01T06:24:46;98828.53;;;26.59;55.65
39449;BME280;25151;45.566;9.382;2023-08-01T06:27:15;98834.47;;;26.50;54.94
39449;BME280;25151;45.566;9.382;2023-08-01T06:29:47;98820.81;;;26.42;54.35
39449;BME280;25151;45.566;9.382;2023-08-01T06:32:16;98838.84;;;26.51;54.14
39449;BME280;25151;45.566;9.382;2023-08-01T06:34:43;98834.19;;;26.47;53.46
39449;BME280;25151;45.566;9.382;2023-08-01T06:37:10;98816.75;;;26.49;53.00
39449;BME280;25151;45.566;9.382;2023-08-01T06:39:36;98819.56;;;26.55;53.19
39449;BME280;25151;45.566;9.382;2023-08-01T06:42:03;98813.13;;;26.60;52.31
39449;BME280;25151;45.566;9.382;2023-08-01T06:44:30;98808.97;;;26.72;52.43
39449;BME280;25151;45.566;9.382;2023-08-01T06:46:59;98829.03;;;26.85;52.09
39449;BME280;25151;45.566;9.382;2023-08-01T06:49:26;98832.38;;;26.89;52.49
39449;BME280;25151;45.566;9.382;2023-08-01T06:51:52;98816.97;;;26.85;52.32
39449;BME280;25151;45.566;9.382;2023-08-01T06:54:23;98830.06;;;26.93;52.21
39449;BME280;25151;45.566;9.382;2023-08-01T06:56:52;98811.50;;;26.92;52.08
39449;BME280;25151;45.566;9.382;2023-08-01T06:59:22;98820.00;;;26.92;52.10
39449;BME280;25151;45.566;9.382;2023-08-01T07:01:55;98816.66;;;26.94;52.67
39449;BME280;25151;45.566;9.382;2023-08-01T07:04:29;98824.91;;;26.97;52.48
39449;BME280;25151;45.566;9.382;2023-08-01T07:06:55;98825.66;;;26.98;52.71
39449;BME280;25151;45.566;9.382;2023-08-01T07:09:24;98824.38;;;27.05;52.41
39449;BME280;25151;45.566;9.382;2023-08-01T07:11:55;98816.66;;;27.05;52.47
39449;BME280;25151;45.566;9.382;2023-08-01T07:14:22;98808.44;;;27.02;52.52
39449;BME280;25151;45.566;9.382;2023-08-01T07:16:52;98805.06;;;27.03;53.00
39449;BME280;25151;45.566;9.382;2023-08-01T07:19:19;98809.97;;;27.03;53.24
39449;BME280;25151;45.566;9.382;2023-08-01T07:21:46;98810.22;;;26.99;53.32
39449;BME280;25151;45.566;9.382;2023-08-01T07:24:17;98802.50;;;27.00;53.42
39449;BME280;25151;45.566;9.382;2023-08-01T07:26:44;98806.09;;;27.06;53.64
39449;BME280;25151;45.566;9.382;2023-08-01T07:29:14;98801.72;;;27.05;53.66
39449;BME280;25151;45.566;9.382;2023-08-01T07:31:41;98803.28;;;27.06;53.39
39449;BME280;25151;45.566;9.382;2023-08-01T07:34:09;98794.00;;;27.05;53.33
39449;BME280;25151;45.566;9.382;2023-08-01T07:36:36;98784.22;;;27.06;53.52
39449;BME280;25151;45.566;9.382;2023-08-01T07:39:03;98802.78;;;27.13;53.92
39449;BME280;25151;45.566;9.382;2023-08-01T07:41:30;98785.78;;;27.13;53.65
39449;BME280;25151;45.566;9.382;2023-08-01T07:44:00;98793.75;;;27.14;54.02
39449;BME280;25151;45.566;9.382;2023-08-01T07:46:27;98784.50;;;27.14;53.77
39449;BME280;25151;45.566;9.382;2023-08-01T07:48:58;98789.63;;;27.10;54.07
39449;BME280;25151;45.566;9.382;2023-08-01T07:51:30;98802.00;;;27.12;54.18
39449;BME280;25151;45.566;9.382;2023-08-01T07:53:57;98798.09;;;27.10;53.87
39449;BME280;25151;45.566;9.382;2023-08-01T07:56:24;98795.03;;;27.13;54.19
39449;BME280;25151;45.566;9.382;2023-08-01T07:58:52;98790.16;;;27.14;53.95
39449;BME280;25151;45.566;9.382;2023-08-01T08:01:19;98789.88;;;27.12;53.97
39449;BME280;25151;45.566;9.382;2023-08-01T08:03:48;98787.56;;;27.16;54.10
39449;BME280;25151;45.566;9.382;2023-08-01T08:06:14;98785.78;;;27.13;54.56
39449;BME280;25151;45.566;9.382;2023-08-01T08:08:44;98794.25;;;27.18;54.18
39449;BME280;25151;45.566;9.382;2023-08-01T08:11:11;98792.72;;;27.12;54.62
39449;BME280;25151;45.566;9.382;2023-08-01T08:13:42;98791.19;;;27.16;54.38
39449;BME280;25151;45.566;9.382;2023-08-01T08:16:08;98780.91;;;27.13;54.63
39449;BME280;25151;45.566;9.382;2023-08-01T08:18:34;98795.78;;;27.19;54.39
39449;BME280;25151;45.566;9.382;2023-08-01T08:21:01;98787.28;;;27.19;54.92
39449;BME280;25151;45.566;9.382;2023-08-01T08:23:29;98771.88;;;27.15;54.46
39449;BME280;25151;45.566;9.382;2023-08-01T08:25:55;98776.00;;;27.14;54.96
39449;BME280;25151;45.566;9.382;2023-08-01T08:28:32;98776.25;;;27.16;54.47
39449;BME280;25151;45.566;9.382;2023-08-01T08:31:00;98782.41;;;27.20;54.60
39449;BME280;25151;45.566;9.382;2023-08-01T08:33:28;98765.44;;;27.14;55.19
39449;BME280;25151;45.566;9.382;2023-08-01T08:35:55;98753.38;;;27.14;54.81
39449;BME280;25151;45.566;9.382;2023-08-01T08:38:22;98750.78;;;27.16;55.02
39449;BME280;25151;45.566;9.382;2023-08-01T08:43:24;98761.06;;;27.19;55.01
39449;BME280;25151;45.566;9.382;2023-08-01T08:45:54;98768.25;;;27.20;54.95
39449;BME280;25151;45.566;9.382;2023-08-01T08:48:22;98756.44;;;27.16;55.13
39449;BME280;25151;45.566;9.382;2023-08-01T08:50:49;98766.97;;;27.21;54.84
39449;BME280;25151;45.566;9.382;2023-08-01T08:53:16;98771.34;;;27.22;54.81
39449;BME280;25151;45.566;9.382;2023-08-01T08:55:44;98760.56;;;27.15;55.13
39449;BME280;25151;45.566;9.382;2023-08-01T08:58:11;98766.47;;;27.17;55.27
39449;BME280;25151;45.566;9.382;2023-08-01T09:00:39;98767.22;;;27.23;54.84
39449;BME280;25151;45.566;9.382;2023-08-01T09:03:06;98772.09;;;27.23;54.83
39449;BME280;25151;45.566;9.382;2023-08-01T09:06:03;98758.72;;;27.23;55.32
39449;BME280;25151;45.566;9.382;2023-08-01T09:08:32;98754.91;;;27.15;55.30
39449;BME280;25151;45.566;9.382;2023-08-01T09:11:02;98754.91;;;27.15;54.85
39449;BME280;25151;45.566;9.382;2023-08-01T09:13:29;98753.06;;;27.23;55.35
39449;BME280;25151;45.566;9.382;2023-08-01T09:16:00;98761.56;;;27.23;55.35
39449;BME280;25151;45.566;9.382;2023-08-01T09:18:28;98747.41;;;27.23;55.42
39449;BME280;25151;45.566;9.382;2023-08-01T09:20:55;98736.63;;;27.21;55.04
39449;BME280;25151;45.566;9.382;2023-08-01T09:23:31;98735.59;;;27.19;54.94
39449;BME280;25151;45.566;9.382;2023-08-01T09:25:57;98747.66;;;27.25;54.95
39449;BME280;25151;45.566;9.382;2023-08-01T09:28:24;98736.34;;;27.19;55.41
39449;BME280;25151;45.566;9.382;2023-08-01T09:30:54;98743.28;;;27.24;55.38
39449;BME280;25151;45.566;9.382;2023-08-01T09:33:21;98729.41;;;27.20;55.14
39449;BME280;25151;45.566;9.382;2023-08-01T09:35:52;98737.09;;;27.26;54.96
39449;BME280;25151;45.566;9.382;2023-08-01T09:38:19;98737.09;;;27.26;55.32
39449;BME280;25151;45.566;9.382;2023-08-01T09:40:47;98729.13;;;27.24;55.08
39449;BME280;25151;45.566;9.382;2023-08-01T09:43:17;98727.09;;;27.25;55.48
39449;BME280;25151;45.566;9.382;2023-08-01T09:45:54;98721.69;;;27.21;55.41
39449;BME280;25151;45.566;9.382;2023-08-01T09:48:28;98717.81;;;27.24;55.18
39449;BME280;25151;45.566;9.382;2023-08-01T09:51:14;98716.75;;;27.27;55.13
39449;BME280;25151;45.566;9.382;2023-08-01T09:56:19;98714.19;;;27.29;55.65
39449;BME280;25151;45.566;9.382;2023-08-01T09:58:50;98709.06;;;27.22;55.34
39449;BME280;25151;45.566;9.382;2023-08-01T10:01:19;98698.53;;;27.23;55.53
39449;BME280;25151;45.566;9.382;2023-08-01T10:03:48;98708.53;;;27.29;55.64
39449;BME280;25151;45.566;9.382;2023-08-01T10:06:22;98710.06;;;27.30;55.16
39449;BME280;25151;45.566;9.382;2023-08-01T10:08:52;98705.94;;;27.31;55.66
39449;BME280;25151;45.566;9.382;2023-08-01T10:11:21;98700.28;;;27.31;55.39
39449;BME280;25151;45.566;9.382;2023-08-01T10:13:48;98695.38;;;27.32;55.23
39449;BME280;25151;45.566;9.382;2023-08-01T10:16:16;98680.50;;;27.26;55.71
39449;BME280;25151;45.566;9.382;2023-08-01T10:18:43;98696.16;;;27.32;55.35
39449;BME280;25151;45.566;9.382;2023-08-01T10:21:16;98690.50;;;27.32;55.64
39449;BME280;25151;45.566;9.382;2023-08-01T10:23:44;98684.84;;;27.32;55.44
39449;BME280;25151;45.566;9.382;2023-08-01T10:26:12;98689.22;;;27.33;55.31
39449;BME280;25151;45.566;9.382;2023-08-01T10:28:48;98688.44;;;27.33;55.73
39449;BME280;25151;45.566;9.382;2023-08-01T10:31:17;98673.75;;;27.34;55.83
39449;BME280;25151;45.566;9.382;2023-08-01T10:33:49;98668.16;;;27.29;55.49
39449;BME280;25151;45.566;9.382;2023-08-01T10:36:17;98671.47;;;27.27;55.75
39449;BME280;25151;45.566;9.382;2023-08-01T10:38:50;98669.66;;;27.30;55.44
39449;BME280;25151;45.566;9.382;2023-08-01T10:41:30;98668.34;;;27.36;55.90
39449;BME280;25151;45.566;9.382;2023-08-01T10:44:12;98671.41;;;27.38;55.84
39449;BME280;25151;45.566;9.382;2023-08-01T10:47:02;98655.00;;;27.31;55.45
39449;BME280;25151;45.566;9.382;2023-08-01T10:49:37;98674.25;;;27.38;56.02
39449;BME280;25151;45.566;9.382;2023-08-01T10:52:26;98667.28;;;27.39;55.99
39449;BME280;25151;45.566;9.382;2023-08-01T10:55:04;98641.38;;;27.30;55.94
39449;BME280;25151;45.566;9.382;2023-08-01T10:57:39;98651.84;;;27.40;55.62
39449;BME280;25151;45.566;9.382;2023-08-01T11:00:08;98629.78;;;27.33;55.79
39449;BME280;25151;45.566;9.382;2023-08-01T11:02:40;98626.41;;;27.35;56.04
39449;BME280;25151;45.566;9.382;2023-08-01T11:05:08;98623.06;;;27.36;55.96
39449;BME280;25151;45.566;9.382;2023-08-01T11:07:36;98630.97;;;27.43;55.84
39449;BME280;25151;45.566;9.382;2023-08-01T11:10:13;98612.50;;;27.37;55.77
39449;BME280;25151;45.566;9.382;2023-08-01T11:12:45;98623.28;;;27.44;55.62
39449;BME280;25151;45.566;9.382;2023-08-01T11:15:14;98620.47;;;27.38;55.77
39449;BME280;25151;45.566;9.382;2023-08-01T11:17:50;98608.38;;;27.38;55.96
39449;BME280;25151;45.566;9.382;2023-08-01T11:20:19;98631.22;;;27.45;56.24
39449;BME280;25151;45.566;9.382;2023-08-01T11:22:57;98611.97;;;27.38;56.17
39449;BME280;25151;45.566;9.382;2023-08-01T11:25:36;98617.84;;;27.46;55.88
39449;BME280;25151;45.566;9.382;2023-08-01T11:28:14;98599.59;;;27.41;55.88
39449;BME280;25151;45.566;9.382;2023-08-01T11:30:43;98576.69;;;27.39;55.91
39449;BME280;25151;45.566;9.382;2023-08-01T11:33:23;98589.00;;;27.48;55.94
39449;BME280;25151;45.566;9.382;2023-08-01T11:35:52;98582.84;;;27.43;55.86
39449;BME280;25151;45.566;9.382;2023-08-01T11:38:27;98587.22;;;27.44;55.95
39449;BME280;25151;45.566;9.382;2023-08-01T11:40:57;98576.41;;;27.43;55.93
39449;BME280;25151;45.566;9.382;2023-08-01T11:43:24;98575.84;;;27.50;56.28
39449;BME280;25151;45.566;9.382;2023-08-01T11:45:51;98581.50;;;27.50;56.07
39449;BME280;25151;45.566;9.382;2023-08-01T11:48:18;98557.63;;;27.45;55.86
39449;BME280;25151;45.566;9.382;2023-08-01T11:50:46;98583.09;;;27.45;55.84
39449;BME280;25151;45.566;9.382;2023-08-01T11:53:22;98596.72;;;27.47;55.86
39449;BME280;25151;45.566;9.382;2023-08-01T11:55:49;98569.13;;;27.53;55.91
39449;BME280;25151;45.566;9.382;2023-08-01T11:58:40;98553.50;;;27.46;56.40
39449;BME280;25151;45.566;9.382;2023-08-01T12:01:11;98566.34;;;27.48;55.82
39449;BME280;25151;45.566;9.382;2023-08-01T12:03:49;98579.50;;;27.45;55.95
39449;BME280;25151;45.566;9.382;2023-08-01T12:06:19;98564.81;;;27.46;55.84
39449;BME280;25151;45.566;9.382;2023-08-01T12:08:46;98558.59;;;27.54;56.24
39449;BME280;25151;45.566;9.382;2023-08-01T12:13:59;98580.97;;;27.52;55.95
39449;BME280;25151;45.566;9.382;2023-08-01T12:16:27;98569.63;;;27.57;56.42
39449;BME280;25151;45.566;9.382;2023-08-01T12:18:54;98548.88;;;27.43;55.96
39449;BME280;25151;45.566;9.382;2023-08-01T12:21:20;98571.91;;;27.59;55.93
39449;BME280;25151;45.566;9.382;2023-08-01T12:23:47;98574.22;;;27.60;56.45
39449;BME280;25151;45.566;9.382;2023-08-01T12:26:14;98571.44;;;27.55;56.50
39449;BME280;25151;45.566;9.382;2023-08-01T12:28:42;98583.25;;;27.59;56.03
39449;BME280;25151;45.566;9.382;2023-08-01T12:31:09;98572.75;;;27.54;56.19
39449;BME280;25151;45.566;9.382;2023-08-01T12:33:37;98554.25;;;27.47;56.08
39449;BME280;25151;45.566;9.382;2023-08-01T12:36:04;98579.66;;;27.58;55.90
39449;BME280;25151;45.566;9.382;2023-08-01T12:38:31;98572.47;;;27.52;56.35
39449;BME280;25151;45.566;9.382;2023-08-01T12:40:58;98563.75;;;27.50;56.14
39449;BME280;25151;45.566;9.382;2023-08-01T12:43:26;98558.81;;;27.56;56.11
39449;BME280;25151;45.566;9.382;2023-08-01T12:45:53;98554.97;;;27.53;56.07
39449;BME280;25151;45.566;9.382;2023-08-01T12:48:26;98564.19;;;27.59;56.02
39449;BME280;25151;45.566;9.382;2023-08-01T12:50:53;98551.38;;;27.53;55.90
39449;BME280;25151;45.566;9.382;2023-08-01T12:53:21;98547.53;;;27.50;55.91
39449;BME280;25151;45.566;9.382;2023-08-01T12:55:50;98555.69;;;27.59;56.17
39449;BME280;25151;45.566;9.382;2023-08-01T12:58:17;98535.94;;;27.54;56.24
39449;BME280;25151;45.566;9.382;2023-08-01T13:00:44;98539.47;;;27.60;56.33
39449;BME280;25151;45.566;9.382;2023-08-01T13:03:12;98538.00;;;27.53;56.01
39449;BME280;25151;45.566;9.382;2023-08-01T13:05:40;98538.22;;;27.55;55.77
39449;BME280;25151;45.566;9.382;2023-08-01T13:08:11;98517.16;;;27.51;55.98
39449;BME280;25151;45.566;9.382;2023-08-01T13:10:38;98534.81;;;27.62;56.22
39449;BME280;25151;45.566;9.382;2023-08-01T13:13:05;98535.84;;;27.65;56.08
39449;BME280;25151;45.566;9.382;2023-08-01T13:15:32;98535.84;;;27.65;56.23
39449;BME280;25151;45.566;9.382;2023-08-01T13:18:01;98520.72;;;27.57;56.25
39449;BME280;25151;45.566;9.382;2023-08-01T13:21:04;98522.72;;;27.62;56.13
39449;BME280;25151;45.566;9.382;2023-08-01T13:23:33;98531.22;;;27.62;56.56